createdAt,value
2022-08-14T00:02:16.422Z,6.95
2022-08-14T00:04:45.033Z,6.60
2022-08-14T00:07:14.734Z,6.57
2022-08-14T00:10:01.651Z,6.93
2022-08-14T00:12:48.065Z,6.53
2022-08-14T00:15:29.894Z,6.95
2022-08-14T00:18:07.158Z,6.93
2022-08-14T00:20:36.027Z,7.47
2022-08-14T00:23:17.216Z,7.07
2022-08-14T00:25:53.867Z,7.18
2022-08-14T00:28:36.889Z,6.85
2022-08-14T00:31:09.623Z,7.07
2022-08-14T00:33:50.776Z,6.57
2022-08-14T00:36:34.912Z,6.35
2022-08-14T00:39:17.822Z,6.53
2022-08-14T00:41:45.969Z,6.70
2022-08-14T00:44:21.528Z,7.10
2022-08-14T00:47:00.968Z,6.60
2022-08-14T00:49:30.048Z,7.47
2022-08-14T00:52:00.482Z,6.90
2022-08-14T00:54:27.312Z,7.28
2022-08-14T00:56:55.520Z,6.80
2022-08-14T00:59:26.589Z,7.00
2022-08-14T01:01:59.740Z,7.03
2022-08-14T01:04:38.139Z,6.80
2022-08-14T01:07:20.604Z,7.45
2022-08-14T01:09:49.490Z,7.57
2022-08-14T01:12:27.251Z,7.35
2022-08-14T01:14:58.332Z,6.93
2022-08-14T01:17:45.958Z,6.97
2022-08-14T01:20:39.659Z,7.38
2022-08-14T01:23:19.099Z,7.68
2022-08-14T01:25:51.340Z,7.40
2022-08-14T01:28:34.472Z,7.25
2022-08-14T01:31:16.807Z,6.78
2022-08-14T01:34:00.517Z,7.72
2022-08-14T01:36:39.343Z,7.13
2022-08-14T01:39:12.845Z,7.45
2022-08-14T01:41:40.514Z,7.60
2022-08-14T01:44:33.186Z,7.63
2022-08-14T01:47:01.248Z,7.35
2022-08-14T01:49:35.163Z,6.78
2022-08-14T01:52:23.253Z,6.25
2022-08-14T01:54:58.089Z,6.57
2022-08-14T01:57:49.409Z,6.15
2022-08-14T02:00:18.836Z,6.95
2022-08-14T02:02:46.587Z,6.10
2022-08-14T02:05:13.853Z,5.97
2022-08-14T02:07:55.324Z,6.15
2022-08-14T02:10:26.020Z,6.20
2022-08-14T02:12:59.554Z,5.95
2022-08-14T02:15:28.824Z,5.78
2022-08-14T02:17:55.578Z,5.80
2022-08-14T02:20:26.011Z,6.13
2022-08-14T02:22:55.242Z,5.88
2022-08-14T02:25:24.944Z,5.80
2022-08-14T02:28:23.588Z,5.57
2022-08-14T02:30:46.086Z,6.43
2022-08-14T02:33:12.837Z,6.00
2022-08-14T02:35:53.265Z,6.00
2022-08-14T02:38:30.291Z,5.97
2022-08-14T02:41:01.172Z,6.78
2022-08-14T02:43:36.536Z,6.20
2022-08-14T02:46:13.034Z,6.28
2022-08-14T02:49:02.843Z,6.00
2022-08-14T02:51:31.447Z,6.70
2022-08-14T02:54:01.864Z,6.53
2022-08-14T02:57:13.969Z,6.38
2022-08-14T02:59:19.441Z,6.38
2022-08-14T03:01:51.182Z,6.07
2022-08-14T03:04:25.293Z,6.45
2022-08-14T03:07:06.103Z,6.78
2022-08-14T03:10:24.489Z,6.40
2022-08-14T03:12:31.741Z,6.78
2022-08-14T03:15:06.335Z,6.28
2022-08-14T03:17:56.046Z,6.40
2022-08-14T03:20:29.029Z,6.47
2022-08-14T03:23:03.036Z,6.25
2022-08-14T03:25:33.463Z,6.43
2022-08-14T03:28:07.099Z,5.97
2022-08-14T03:30:38.857Z,7.22
2022-08-14T03:33:11.751Z,7.15
2022-08-14T03:36:00.329Z,6.68
2022-08-14T03:39:13.605Z,6.53
2022-08-14T03:41:23.919Z,6.93
2022-08-14T03:45:25.439Z,6.43
2022-08-14T03:46:54.840Z,6.82
2022-08-14T03:49:28.877Z,6.45
2022-08-14T03:51:58.186Z,6.57
2022-08-14T03:54:25.934Z,7.05
2022-08-14T03:56:54.676Z,6.75
2022-08-14T03:59:23.596Z,7.22
2022-08-14T04:02:01.364Z,6.40
2022-08-14T04:04:33.589Z,6.68
2022-08-14T04:07:00.841Z,6.72
2022-08-14T04:09:27.987Z,7.07
2022-08-14T04:11:58.179Z,7.00
2022-08-14T04:14:29.102Z,6.50
2022-08-14T04:16:58.306Z,7.22
2022-08-14T04:19:28.006Z,7.13
2022-08-14T04:22:03.951Z,7.00
2022-08-14T04:24:38.169Z,7.47
2022-08-14T04:27:09.634Z,7.40
2022-08-14T04:29:39.534Z,7.22
2022-08-14T04:33:10.698Z,6.97
2022-08-14T04:34:56.173Z,7.50
2022-08-14T04:37:46.324Z,6.93
2022-08-14T04:40:40.455Z,7.15
2022-08-14T04:43:39.032Z,7.38
2022-08-14T04:46:07.181Z,7.13
2022-08-14T04:48:43.186Z,8.05
2022-08-14T04:51:12.305Z,7.82
2022-08-14T04:53:43.958Z,7.60
2022-08-14T04:56:33.674Z,8.30
2022-08-14T04:59:09.971Z,7.93
2022-08-14T05:01:47.645Z,7.43
2022-08-14T05:04:20.005Z,7.38
2022-08-14T05:06:47.286Z,7.97
2022-08-14T05:09:16.262Z,7.70
2022-08-14T05:11:44.602Z,7.80
2022-08-14T05:14:45.381Z,8.25
2022-08-14T05:17:05.663Z,7.78
2022-08-14T05:19:44.288Z,8.13
2022-08-14T05:22:26.998Z,8.02
2022-08-14T05:24:56.134Z,7.90
2022-08-14T05:27:25.384Z,8.05
2022-08-14T05:29:57.720Z,7.75
2022-08-14T05:32:27.580Z,7.80
2022-08-14T05:34:58.758Z,8.30
2022-08-14T05:37:29.751Z,8.73
2022-08-14T05:39:58.259Z,9.23
2022-08-14T05:42:26.913Z,8.90
2022-08-14T05:44:56.318Z,8.90
2022-08-14T05:47:23.846Z,9.52
2022-08-14T05:49:53.154Z,10.50
2022-08-14T05:52:26.322Z,9.80
2022-08-14T05:55:09.298Z,9.20
2022-08-14T05:57:47.850Z,9.80
2022-08-14T06:00:28.302Z,9.52
2022-08-14T06:02:58.251Z,9.73
2022-08-14T06:05:28.789Z,9.90
2022-08-14T06:07:57.343Z,11.02
2022-08-14T06:10:24.306Z,10.82
2022-08-14T06:12:56.510Z,12.55
2022-08-14T06:15:28.990Z,12.77
2022-08-14T06:17:59.066Z,12.52
2022-08-14T06:20:28.249Z,13.50
2022-08-14T06:22:58.149Z,13.60
2022-08-14T06:25:28.385Z,13.38
2022-08-14T06:27:55.351Z,13.27
2022-08-14T06:30:46.215Z,13.68
2022-08-14T06:33:15.596Z,13.98
2022-08-14T06:35:46.702Z,12.55
2022-08-14T06:38:21.518Z,13.13
2022-08-14T06:40:53.291Z,13.57
2022-08-14T06:43:27.004Z,14.77
2022-08-14T06:45:56.997Z,14.02
2022-08-14T06:48:27.272Z,13.23
2022-08-14T06:50:55.007Z,14.98
2022-08-14T06:53:27.807Z,14.07
2022-08-14T06:56:00.551Z,14.38
2022-08-14T06:58:31.341Z,13.88
2022-08-14T07:01:23.092Z,12.57
2022-08-14T07:04:22.664Z,13.25
2022-08-14T07:06:50.138Z,12.40
2022-08-14T07:09:23.296Z,13.65
2022-08-14T07:11:51.796Z,15.00
2022-08-14T07:14:18.627Z,14.10
2022-08-14T07:16:47.598Z,13.45
2022-08-14T07:19:17.646Z,12.93
2022-08-14T07:21:48.034Z,13.52
2022-08-14T07:24:22.068Z,13.13
2022-08-14T07:26:53.366Z,13.27
2022-08-14T07:29:26.097Z,12.85
2022-08-14T07:31:53.579Z,12.25
2022-08-14T07:34:26.335Z,12.30
2022-08-14T07:37:06.148Z,12.48
2022-08-14T07:39:34.464Z,11.98
2022-08-14T07:42:02.009Z,11.60
2022-08-14T07:44:35.549Z,11.23
2022-08-14T07:47:03.684Z,11.70
2022-08-14T07:49:34.385Z,11.48
2022-08-14T07:52:05.022Z,10.90
2022-08-14T07:54:34.238Z,11.80
2022-08-14T07:57:06.615Z,11.18
2022-08-14T07:59:43.764Z,11.93
2022-08-14T08:02:17.149Z,11.02
2022-08-14T08:04:49.577Z,11.18
2022-08-14T08:07:18.599Z,12.32
2022-08-14T08:09:53.246Z,12.15
2022-08-14T08:12:21.687Z,12.07
2022-08-14T08:15:03.417Z,12.57
2022-08-14T08:17:38.820Z,11.85
2022-08-14T08:20:14.741Z,13.07
2022-08-14T08:22:43.475Z,12.45
2022-08-14T08:25:17.844Z,12.77
2022-08-14T08:28:19.730Z,12.75
2022-08-14T08:30:54.471Z,12.57
2022-08-14T08:33:24.575Z,12.93
2022-08-14T08:35:51.355Z,13.38
2022-08-14T08:39:15.701Z,12.60
2022-08-14T08:41:11.209Z,13.07
2022-08-14T08:43:47.116Z,12.88
2022-08-14T08:46:21.208Z,12.15
2022-08-14T08:51:42.903Z,12.02
2022-08-14T08:54:18.684Z,13.13
2022-08-14T08:56:52.044Z,12.52
2022-08-14T08:59:27.091Z,12.10
2022-08-14T09:01:58.849Z,11.65
2022-08-14T09:04:31.266Z,11.95
2022-08-14T09:07:09.183Z,11.40
2022-08-14T09:09:54.323Z,12.05
2022-08-14T09:12:31.454Z,11.30
2022-08-14T09:15:02.915Z,11.70
2022-08-14T09:17:32.175Z,11.00
2022-08-14T09:20:01.962Z,11.40
2022-08-14T09:22:34.835Z,11.25
2022-08-14T09:25:07.181Z,12.35
2022-08-14T09:27:35.816Z,11.57
2022-08-14T09:30:13.312Z,11.77
2022-08-14T09:33:11.021Z,11.88
2022-08-14T09:36:01.885Z,11.57
2022-08-14T09:38:32.426Z,12.25
2022-08-14T09:41:00.713Z,11.80
2022-08-14T09:43:37.254Z,11.80
2022-08-14T09:46:07.619Z,11.82
2022-08-14T09:48:34.429Z,11.88
2022-08-14T09:54:12.810Z,12.20
2022-08-14T09:56:30.054Z,12.02
2022-08-14T09:58:58.841Z,11.93
2022-08-14T10:01:35.080Z,11.90
2022-08-14T10:04:02.983Z,11.93
2022-08-14T10:06:35.608Z,12.25
2022-08-14T10:09:03.013Z,12.45
2022-08-14T10:11:35.936Z,11.00
2022-08-14T10:14:34.927Z,11.85
2022-08-14T10:17:05.985Z,12.50
2022-08-14T10:19:36.421Z,11.85
2022-08-14T10:23:12.842Z,12.85
2022-08-14T10:24:57.436Z,13.05
2022-08-14T10:27:29.117Z,12.57
2022-08-14T10:30:04.224Z,12.52
2022-08-14T10:32:40.132Z,12.60
2022-08-14T10:35:14.386Z,13.05
2022-08-14T10:37:49.954Z,12.68
2022-08-14T10:40:36.869Z,13.13
2022-08-14T10:43:26.693Z,12.70
2022-08-14T10:46:59.008Z,13.13
2022-08-14T10:49:04.269Z,12.25
2022-08-14T10:51:34.207Z,12.63
2022-08-14T10:54:35.207Z,11.85
2022-08-14T10:56:57.904Z,12.30
2022-08-14T10:59:31.333Z,12.82
2022-08-14T11:02:03.108Z,12.40
2022-08-14T11:04:30.862Z,12.98
2022-08-14T11:06:58.024Z,12.27
2022-08-14T11:09:25.919Z,12.70
2022-08-14T11:12:33.793Z,13.07
2022-08-14T11:15:02.268Z,12.40
2022-08-14T11:17:32.183Z,12.70
2022-08-14T11:20:03.544Z,12.38
2022-08-14T11:22:52.306Z,12.30
2022-08-14T11:25:23.901Z,11.35
2022-08-14T11:27:55.275Z,12.40
2022-08-14T11:30:51.225Z,11.55
2022-08-14T11:33:17.118Z,11.60
2022-08-14T11:35:48.382Z,11.05
2022-08-14T11:38:21.568Z,11.57
2022-08-14T11:40:53.154Z,11.23
2022-08-14T11:43:29.174Z,11.57
2022-08-14T11:46:03.636Z,11.07
2022-08-14T11:49:02.106Z,11.95
2022-08-14T11:51:30.423Z,11.60
2022-08-14T11:54:19.843Z,11.95
2022-08-14T11:56:49.950Z,10.85
2022-08-14T11:59:18.647Z,11.25
2022-08-14T12:01:48.855Z,10.77
2022-08-14T12:04:32.377Z,10.85
2022-08-14T12:07:01.190Z,11.40
2022-08-14T12:09:38.337Z,11.95
2022-08-14T12:12:35.110Z,11.63
2022-08-14T12:15:07.177Z,12.23
2022-08-14T12:17:49.747Z,13.55
2022-08-14T12:20:30.028Z,13.43
2022-08-14T12:23:00.659Z,12.25
2022-08-14T12:25:27.611Z,12.23
2022-08-14T12:27:59.448Z,12.38
2022-08-14T12:30:38.107Z,11.88
2022-08-14T12:33:31.034Z,12.40
2022-08-14T12:36:05.888Z,12.48
2022-08-14T12:38:43.944Z,10.98
2022-08-14T12:41:22.151Z,12.50
2022-08-14T12:44:00.201Z,11.80
2022-08-14T12:46:35.201Z,12.25
2022-08-14T12:49:09.073Z,12.32
2022-08-14T12:51:36.787Z,12.20
2022-08-14T12:54:28.419Z,14.43
2022-08-14T12:57:04.932Z,12.00
2022-08-14T12:59:37.127Z,12.05
2022-08-14T13:02:25.428Z,12.45
2022-08-14T13:04:55.980Z,11.93
2022-08-14T13:07:33.434Z,11.27
2022-08-14T13:10:00.623Z,11.52
2022-08-14T13:13:12.023Z,11.70
2022-08-14T13:15:36.567Z,11.57
2022-08-14T13:18:04.994Z,11.50
2022-08-14T13:20:33.490Z,11.93
2022-08-14T13:23:00.714Z,11.98
2022-08-14T13:25:27.845Z,11.25
2022-08-14T13:27:57.650Z,11.73
2022-08-14T13:30:24.985Z,11.82
2022-08-14T13:32:53.230Z,10.98
2022-08-14T13:35:20.154Z,11.55
2022-08-14T13:37:53.780Z,11.15
2022-08-14T13:40:26.460Z,11.52
2022-08-14T13:42:54.084Z,11.35
2022-08-14T13:45:24.330Z,11.73
2022-08-14T13:48:03.207Z,11.75
2022-08-14T13:50:30.030Z,11.65
2022-08-14T13:52:59.762Z,10.88
2022-08-14T13:55:30.264Z,10.77
2022-08-14T13:58:04.457Z,11.40
2022-08-14T14:00:53.318Z,11.63
2022-08-14T14:03:23.650Z,10.73
2022-08-14T14:05:55.280Z,10.45
2022-08-14T14:08:46.001Z,10.38
2022-08-14T14:11:24.107Z,10.75
2022-08-14T14:13:51.884Z,10.77
2022-08-14T14:16:26.446Z,11.15
2022-08-14T14:19:09.862Z,10.70
2022-08-14T14:21:37.182Z,11.18
2022-08-14T14:24:06.028Z,13.05
2022-08-14T14:26:35.999Z,10.80
2022-08-14T14:29:03.279Z,11.07
2022-08-14T14:31:32.557Z,10.63
2022-08-14T14:34:01.089Z,10.68
2022-08-14T14:36:34.672Z,10.35
2022-08-14T14:39:06.031Z,10.57
2022-08-14T14:41:38.088Z,10.57
2022-08-14T14:44:09.433Z,11.05
2022-08-14T14:46:43.401Z,10.82
2022-08-14T14:49:14.640Z,10.85
2022-08-14T14:51:46.877Z,10.18
2022-08-14T14:54:31.510Z,10.88
2022-08-14T14:57:00.216Z,10.43
2022-08-14T14:59:35.966Z,10.73
2022-08-14T15:02:07.770Z,10.98
2022-08-14T15:04:37.676Z,11.05
2022-08-14T15:07:08.120Z,10.38
2022-08-14T15:09:34.907Z,11.23
2022-08-14T15:12:28.029Z,10.90
2022-08-14T15:14:57.790Z,10.15
2022-08-14T15:17:35.339Z,11.25
2022-08-14T15:20:17.619Z,11.00
2022-08-14T15:23:00.915Z,11.45
2022-08-14T15:25:35.570Z,10.75
2022-08-14T15:28:06.371Z,11.82
2022-08-14T15:30:33.153Z,11.10
2022-08-14T15:33:02.977Z,11.43
2022-08-14T15:35:33.970Z,10.90
2022-08-14T15:38:12.461Z,10.80
2022-08-14T15:40:44.645Z,11.27
2022-08-14T15:43:20.747Z,10.90
2022-08-14T15:45:49.270Z,10.88
2022-08-14T15:48:22.215Z,11.18
2022-08-14T15:50:52.137Z,11.52
2022-08-14T15:53:22.389Z,11.60
2022-08-14T15:55:54.634Z,10.05
2022-08-14T15:58:25.195Z,10.45
2022-08-14T16:01:11.660Z,11.75
2022-08-14T16:03:41.039Z,11.15
2022-08-14T16:06:15.670Z,11.55
2022-08-14T16:08:50.413Z,11.15
2022-08-14T16:11:24.811Z,11.80
2022-08-14T16:13:51.620Z,11.40
2022-08-14T16:16:46.966Z,10.75
2022-08-14T16:19:14.822Z,11.13
2022-08-14T16:22:01.239Z,11.35
2022-08-14T16:24:33.399Z,11.68
2022-08-14T16:27:01.480Z,11.60
2022-08-14T16:29:31.453Z,11.50
2022-08-14T16:32:00.299Z,11.98
2022-08-14T16:34:44.618Z,11.35
2022-08-14T16:37:16.580Z,11.27
2022-08-14T16:39:43.444Z,12.50
2022-08-14T16:43:02.232Z,11.27
2022-08-14T16:44:58.759Z,13.18
2022-08-14T16:47:32.006Z,12.50
2022-08-14T16:50:05.489Z,12.65
2022-08-14T16:52:44.937Z,11.93
2022-08-14T16:55:22.454Z,12.77
2022-08-14T16:57:59.786Z,12.43
2022-08-14T17:00:43.175Z,13.60
2022-08-14T17:03:11.962Z,11.70
2022-08-14T17:05:46.676Z,12.57
2022-08-14T17:08:41.379Z,13.23
2022-08-14T17:11:10.984Z,12.40
2022-08-14T17:13:59.591Z,15.45
2022-08-14T17:16:35.959Z,12.75
2022-08-14T17:19:05.544Z,12.13
2022-08-14T17:21:38.106Z,12.15
2022-08-14T17:27:03.917Z,12.13
2022-08-14T17:29:33.255Z,12.57
2022-08-14T17:32:28.416Z,12.75
2022-08-14T17:37:56.074Z,13.05
2022-08-14T17:40:26.538Z,13.07
2022-08-14T17:43:01.659Z,12.70
2022-08-14T17:45:41.350Z,12.30
2022-08-14T17:49:13.763Z,11.95
2022-08-14T17:51:12.174Z,12.73
2022-08-14T17:53:39.209Z,12.32
2022-08-14T17:56:20.632Z,12.10
2022-08-14T17:58:48.598Z,12.25
2022-08-14T18:01:16.778Z,13.38
2022-08-14T18:03:53.871Z,13.45
2022-08-14T18:06:39.138Z,12.77
2022-08-14T18:09:24.550Z,12.00
2022-08-14T18:11:54.275Z,13.00
2022-08-14T18:14:32.875Z,12.38
2022-08-14T18:17:12.351Z,12.60
2022-08-14T18:19:45.137Z,12.90
2022-08-14T18:22:23.942Z,12.90
2022-08-14T18:25:02.392Z,13.23
2022-08-14T18:27:41.775Z,10.85
2022-08-14T18:30:31.691Z,11.90
2022-08-14T18:32:59.251Z,10.25
2022-08-14T18:35:56.897Z,8.95
2022-08-14T18:38:55.298Z,8.75
2022-08-14T18:41:37.119Z,8.27
2022-08-14T18:44:10.362Z,8.05
2022-08-14T18:47:22.425Z,8.45
2022-08-14T18:50:19.126Z,7.75
2022-08-14T18:52:54.793Z,8.50
2022-08-14T18:55:22.349Z,8.10
2022-08-14T18:57:58.229Z,8.45
2022-08-14T19:00:32.883Z,7.93
2022-08-14T19:03:00.708Z,7.80
2022-08-14T19:05:47.928Z,7.97
2022-08-14T19:08:18.431Z,7.97
2022-08-14T19:10:49.454Z,8.75
2022-08-14T19:13:48.546Z,8.52
2022-08-14T19:16:18.581Z,8.80
2022-08-14T19:18:53.274Z,8.25
2022-08-14T19:21:29.870Z,7.95
2022-08-14T19:24:30.814Z,8.40
2022-08-14T19:27:24.625Z,7.72
2022-08-14T19:30:20.272Z,8.10
2022-08-14T19:32:52.265Z,7.95
2022-08-14T19:35:24.306Z,9.43
2022-08-14T19:37:55.420Z,8.80
2022-08-14T19:40:40.071Z,8.30
2022-08-14T19:43:09.295Z,8.40
2022-08-14T19:45:39.319Z,8.68
2022-08-14T19:48:15.844Z,8.80
2022-08-14T19:50:46.750Z,9.20
2022-08-14T19:53:17.232Z,11.55
2022-08-14T19:55:54.863Z,8.65
2022-08-14T19:58:38.432Z,8.90
2022-08-14T20:01:37.670Z,8.93
2022-08-14T20:04:22.841Z,8.70
2022-08-14T20:07:04.420Z,9.20
2022-08-14T20:11:04.105Z,8.57
2022-08-14T20:12:28.878Z,8.63
2022-08-14T20:15:17.774Z,8.55
2022-08-14T20:17:52.935Z,9.23
2022-08-14T20:20:31.706Z,9.38
2022-08-14T20:23:10.822Z,9.23
2022-08-14T20:25:45.403Z,8.88
2022-08-14T20:28:29.979Z,8.73
2022-08-14T20:31:17.894Z,8.88
2022-08-14T20:34:06.231Z,9.50
2022-08-14T20:36:37.045Z,9.40
2022-08-14T20:39:07.597Z,9.20
2022-08-14T20:41:34.391Z,9.15
2022-08-14T20:44:20.667Z,9.70
2022-08-14T20:46:50.514Z,9.82
2022-08-14T20:49:27.055Z,10.30
2022-08-14T20:52:00.159Z,9.90
2022-08-14T20:54:33.864Z,9.80
2022-08-14T20:57:12.089Z,10.13
2022-08-14T20:59:51.395Z,10.63
2022-08-14T21:02:34.577Z,10.05
2022-08-14T21:05:16.781Z,9.70
2022-08-14T21:07:52.107Z,9.95
2022-08-14T21:10:33.870Z,9.45
2022-08-14T21:14:08.944Z,10.20
2022-08-14T21:16:32.928Z,10.55
2022-08-14T21:18:57.172Z,10.93
2022-08-14T21:21:40.512Z,12.50
2022-08-14T21:24:40.205Z,11.45
2022-08-14T21:27:12.235Z,11.63
2022-08-14T21:29:49.879Z,11.73
2022-08-14T21:32:33.735Z,11.48
2022-08-14T21:35:08.509Z,11.05
2022-08-14T21:37:50.610Z,11.48
2022-08-14T21:40:41.892Z,11.77
2022-08-14T21:43:18.047Z,11.60
2022-08-14T21:45:51.907Z,11.25
2022-08-14T21:48:21.419Z,11.90
2022-08-14T21:51:01.454Z,11.43
2022-08-14T21:53:59.401Z,12.00
2022-08-14T21:56:38.448Z,11.93
2022-08-14T21:59:09.014Z,11.57
2022-08-14T22:02:01.543Z,12.40
2022-08-14T22:04:32.961Z,12.40
2022-08-14T22:07:01.876Z,12.35
2022-08-14T22:09:32.381Z,11.65
2022-08-14T22:12:08.108Z,12.75
2022-08-14T22:14:43.704Z,12.52
2022-08-14T22:17:16.350Z,12.35
2022-08-14T22:19:54.437Z,13.20
2022-08-14T22:22:24.013Z,12.27
2022-08-14T22:24:59.688Z,12.80
2022-08-14T22:27:29.441Z,12.40
2022-08-14T22:29:59.044Z,12.23
2022-08-14T22:32:56.773Z,13.00
2022-08-14T22:35:17.564Z,12.35
2022-08-14T22:37:45.049Z,12.50
2022-08-14T22:40:50.731Z,12.27
2022-08-14T22:43:01.301Z,12.10
2022-08-14T22:45:36.509Z,13.23
2022-08-14T22:48:11.178Z,13.63
2022-08-14T22:50:53.085Z,13.13
2022-08-14T22:53:23.824Z,13.50
2022-08-14T22:55:56.724Z,13.50
2022-08-14T22:58:31.381Z,12.75
2022-08-14T23:01:01.623Z,12.27
2022-08-14T23:03:34.237Z,12.88
2022-08-14T23:06:02.245Z,12.48
2022-08-14T23:08:59.425Z,13.18
2022-08-14T23:11:18.101Z,13.52
2022-08-14T23:13:46.141Z,12.82
2022-08-14T23:16:20.422Z,13.63
2022-08-14T23:18:53.872Z,13.65
2022-08-14T23:21:24.115Z,13.88
2022-08-14T23:23:51.895Z,13.70
2022-08-14T23:26:49.449Z,14.15
2022-08-14T23:29:12.850Z,12.85
2022-08-14T23:31:45.153Z,14.27
2022-08-14T23:34:20.925Z,14.50
2022-08-14T23:36:55.258Z,14.30
2022-08-14T23:39:29.635Z,14.35
2022-08-14T23:41:58.134Z,14.90
2022-08-14T23:44:34.761Z,14.65
2022-08-14T23:47:03.463Z,14.50
2022-08-14T23:49:55.495Z,14.23
2022-08-14T23:52:56.317Z,14.57
2022-08-14T23:55:11.046Z,14.70
2022-08-14T23:57:43.594Z,14.63
